createdAt,value
2022-12-11T00:00:28.521Z,96746.53
2022-12-11T00:02:56.859Z,96743.88
2022-12-11T00:05:24.445Z,96734.78
2022-12-11T00:07:51.730Z,96731.44
2022-12-11T00:10:18.820Z,96740.97
2022-12-11T00:12:45.791Z,96748.53
2022-12-11T00:15:13.359Z,96756.94
2022-12-11T00:17:40.380Z,96765.69
2022-12-11T00:20:08.574Z,96754.41
2022-12-11T00:22:35.771Z,96762.31
2022-12-11T00:25:03.056Z,96770.88
2022-12-11T00:27:30.334Z,96763.06
2022-12-11T00:29:57.522Z,96763.31
2022-12-11T00:32:24.521Z,96777.97
2022-12-11T00:34:51.503Z,96804.13
2022-12-11T00:37:18.723Z,96827.69
2022-12-11T00:39:46.283Z,96813.09
2022-12-11T00:42:13.328Z,96839.72
2022-12-11T00:44:40.494Z,96883.81
2022-12-11T00:47:07.977Z,96862.13
2022-12-11T00:49:35.201Z,96842.97
2022-12-11T00:52:02.297Z,96854.22
2022-12-11T00:54:29.321Z,96872.81
2022-12-11T00:56:56.604Z,96894.72
2022-12-11T00:59:23.727Z,96950.97
2022-12-11T01:01:50.634Z,96951.78
2022-12-11T01:04:18.125Z,96941.22
2022-12-11T01:06:45.294Z,96950.03
2022-12-11T01:09:31.222Z,96945.44
2022-12-11T01:11:58.538Z,96944.38
2022-12-11T01:14:27.170Z,96925.47
2022-12-11T01:16:54.430Z,96938.56
2022-12-11T01:19:21.734Z,96936.41
2022-12-11T01:21:49.122Z,96941.44
2022-12-11T01:24:16.189Z,96969.44
2022-12-11T01:26:43.195Z,96971.16
2022-12-11T01:29:10.352Z,96976.19
2022-12-11T01:31:38.757Z,96967.03
2022-12-11T01:34:05.826Z,96994.44
2022-12-11T01:36:32.796Z,96996.31
2022-12-11T01:38:59.995Z,96995.50
2022-12-11T01:41:27.394Z,96999.72
2022-12-11T01:44:00.121Z,97015.97
2022-12-11T01:46:28.715Z,97030.13
2022-12-11T01:48:57.322Z,97044.75
2022-12-11T01:51:25.454Z,97064.63
2022-12-11T01:54:01.623Z,97062.97
2022-12-11T01:56:32.891Z,97070.03
2022-12-11T01:59:07.627Z,97081.25
2022-12-11T02:01:43.793Z,97061.63
2022-12-11T02:04:13.030Z,97091.44
2022-12-11T02:06:49.728Z,97085.13
2022-12-11T02:09:20.874Z,97083.25
2022-12-11T02:12:12.341Z,97075.63
2022-12-11T02:15:07.997Z,97081.25
2022-12-11T02:17:49.526Z,97124.00
2022-12-11T02:20:54.813Z,97140.44
2022-12-11T02:23:57.892Z,97135.50
2022-12-11T02:26:30.691Z,97169.78
2022-12-11T02:29:05.973Z,97171.50
2022-12-11T02:34:47.487Z,97187.91
2022-12-11T02:37:24.174Z,97173.41
2022-12-11T02:39:55.023Z,97198.22
2022-12-11T02:42:24.247Z,97201.66
2022-12-11T02:44:54.486Z,97174.16
2022-12-11T02:47:22.715Z,97161.50
2022-12-11T02:49:50.595Z,97179.47
2022-12-11T02:52:21.552Z,97191.69
2022-12-11T02:54:52.582Z,97211.38
2022-12-11T02:57:31.683Z,97225.16
2022-12-11T02:59:59.041Z,97232.75
2022-12-11T03:02:26.382Z,97229.31
2022-12-11T03:04:54.746Z,97254.38
2022-12-11T03:07:30.192Z,97276.69
2022-12-11T03:09:57.875Z,97269.97
2022-12-11T03:12:29.592Z,97296.41
2022-12-11T03:15:02.725Z,97312.78
2022-12-11T03:17:39.157Z,97297.50
2022-12-11T03:20:24.881Z,97313.72
2022-12-11T03:23:05.227Z,97287.09
2022-12-11T03:25:59.759Z,97292.28
2022-12-11T03:31:15.007Z,97309.31
2022-12-11T03:36:33.858Z,97322.25
2022-12-11T03:39:15.832Z,97308.50
2022-12-11T04:30:22.927Z,97373.38
2022-12-11T04:41:12.843Z,97360.47
2022-12-11T04:43:40.522Z,97381.88
2022-12-11T04:46:11.452Z,97376.78
2022-12-11T05:15:35.452Z,97449.16
2022-12-11T05:18:03.170Z,97465.50
2022-12-11T05:20:33.700Z,97454.34
2022-12-11T05:23:01.184Z,97477.53
2022-12-11T05:25:31.431Z,97475.81
2022-12-11T05:27:58.901Z,97467.25
2022-12-11T05:30:26.969Z,97473.28
2022-12-11T05:32:56.561Z,97491.31
2022-12-11T05:35:23.898Z,97482.69
2022-12-11T05:43:09.761Z,97490.41
2022-12-11T05:53:51.609Z,97526.44
2022-12-11T05:56:22.079Z,97563.34
2022-12-11T06:01:27.439Z,97575.41
2022-12-11T06:09:18.304Z,97553.84
2022-12-11T07:53:00.511Z,97763.22
2022-12-11T07:55:27.924Z,97741.81
2022-12-11T07:57:57.062Z,97752.84
2022-12-11T08:00:24.217Z,97768.41
2022-12-11T08:02:51.276Z,97756.28
2022-12-11T08:05:18.541Z,97783.72
2022-12-11T08:07:45.717Z,97796.41
2022-12-11T08:10:13.472Z,97795.59
2022-12-11T08:12:40.687Z,97803.34
2022-12-11T08:15:08.736Z,97801.84
2022-12-11T08:17:39.993Z,97803.53
2022-12-11T08:20:08.721Z,97806.06
2022-12-11T08:22:35.921Z,97810.28
2022-12-11T08:25:03.420Z,97816.44
2022-12-11T08:27:30.613Z,97826.66
2022-12-11T08:29:57.781Z,97824.06
2022-12-11T08:32:27.735Z,97818.97
2022-12-11T08:34:54.864Z,97826.78
2022-12-11T08:37:21.931Z,97834.50
2022-12-11T08:39:49.066Z,97841.41
2022-12-11T08:42:15.992Z,97847.50
2022-12-11T08:44:43.172Z,97842.38
2022-12-11T08:47:16.221Z,97855.22
2022-12-11T08:49:43.124Z,97850.88
2022-12-11T08:52:10.595Z,97850.06
2022-12-11T08:54:41.354Z,97851.69
2022-12-11T08:57:08.822Z,97862.00
2022-12-11T08:59:36.158Z,97874.91
2022-12-11T09:02:03.345Z,97889.44
2022-12-11T09:04:30.258Z,97873.91
2022-12-11T09:06:57.269Z,97842.34
2022-12-11T09:09:24.614Z,97836.25
2022-12-11T09:11:51.727Z,97849.19
2022-12-11T09:14:33.917Z,97856.84
2022-12-11T09:20:00.381Z,97850.16
2022-12-11T09:22:27.369Z,97844.84
2022-12-11T09:24:54.309Z,97841.38
2022-12-11T09:27:22.025Z,97857.72
2022-12-11T09:29:49.971Z,97858.56
2022-12-11T09:37:29.416Z,97855.81
2022-12-11T09:45:28.058Z,97850.75
2022-12-11T09:50:34.925Z,97836.19
2022-12-11T09:53:20.318Z,97860.31
2022-12-11T09:55:53.446Z,97863.72
2022-12-11T09:58:38.728Z,97859.44
2022-12-11T10:01:22.545Z,97849.09
2022-12-11T10:04:11.022Z,97845.75
2022-12-11T10:07:04.685Z,97848.38
2022-12-11T10:09:52.116Z,97839.44
2022-12-11T10:12:22.006Z,97850.56
2022-12-11T10:15:10.833Z,97848.78
2022-12-11T10:17:40.464Z,97858.19
2022-12-11T10:20:13.294Z,97850.31
2022-12-11T10:22:40.541Z,97844.25
2022-12-11T10:25:14.470Z,97845.19
2022-12-11T10:27:41.937Z,97845.28
2022-12-11T10:30:16.104Z,97848.75
2022-12-11T10:33:09.104Z,97841.81
2022-12-11T10:35:39.286Z,97843.38
2022-12-11T10:38:24.311Z,97858.81
2022-12-11T10:41:01.698Z,97845.13
2022-12-11T10:43:42.804Z,97834.56
2022-12-11T10:46:33.201Z,97844.84
2022-12-11T10:49:01.394Z,97847.63
2022-12-11T10:51:31.581Z,97847.75
2022-12-11T10:54:07.406Z,97843.41
2022-12-11T10:56:37.745Z,97856.19
2022-12-11T10:59:05.743Z,97853.59
2022-12-11T11:01:33.368Z,97859.50
2022-12-11T11:04:07.380Z,97849.47
2022-12-11T11:06:34.496Z,97856.31
2022-12-11T11:09:04.170Z,97851.88
2022-12-11T11:11:35.526Z,97863.13
2022-12-11T11:14:12.759Z,97864.75
2022-12-11T11:16:41.476Z,97865.69
2022-12-11T11:19:18.750Z,97848.66
2022-12-11T11:21:52.193Z,97834.06
2022-12-11T11:24:27.240Z,97832.19
2022-12-11T11:27:12.763Z,97831.59
2022-12-11T11:29:41.284Z,97821.31
2022-12-11T11:32:22.935Z,97825.59
2022-12-11T11:34:50.381Z,97833.31
2022-12-11T11:37:37.886Z,97841.00
2022-12-11T11:40:23.385Z,97822.09
2022-12-11T11:43:03.413Z,97845.34
2022-12-11T11:45:42.924Z,97838.47
2022-12-11T11:48:25.485Z,97837.28
2022-12-11T11:50:54.266Z,97831.44
2022-12-11T11:53:37.623Z,97834.19
2022-12-11T11:56:23.155Z,97839.25
2022-12-11T11:59:03.074Z,97846.97
2022-12-11T12:01:30.744Z,97854.69
2022-12-11T12:03:58.484Z,97859.06
2022-12-11T12:06:48.982Z,97857.25
2022-12-11T12:09:35.101Z,97853.84
2022-12-11T12:12:33.981Z,97853.69
2022-12-11T12:15:13.739Z,97854.69
2022-12-11T12:18:14.056Z,97855.63
2022-12-11T12:20:54.028Z,97835.19
2022-12-11T12:24:00.785Z,97853.88
2022-12-11T12:26:31.925Z,97846.13
2022-12-11T12:29:07.765Z,97844.53
2022-12-11T12:31:56.089Z,97848.78
2022-12-11T12:34:42.530Z,97852.22
2022-12-11T12:37:28.008Z,97851.25
2022-12-11T12:40:03.408Z,97846.22
2022-12-11T12:42:48.660Z,97839.34
2022-12-11T12:45:15.694Z,97838.47
2022-12-11T12:47:47.730Z,97831.72
2022-12-11T12:50:21.743Z,97837.63
2022-12-11T12:52:49.387Z,97843.63
2022-12-11T12:55:37.068Z,97846.91
2022-12-11T12:58:06.196Z,97844.47
2022-12-11T13:00:41.365Z,97864.97
2022-12-11T13:03:21.090Z,97872.78
2022-12-11T13:06:01.463Z,97880.63
2022-12-11T13:08:39.806Z,97879.72
2022-12-11T13:11:12.410Z,97883.88
2022-12-11T13:13:51.575Z,97890.75
2022-12-11T13:16:21.480Z,97889.03
2022-12-11T13:18:48.581Z,97885.63
2022-12-11T13:21:41.135Z,97883.75
2022-12-11T13:24:21.473Z,97893.31
2022-12-11T13:26:50.272Z,97895.84
2022-12-11T13:29:39.526Z,97902.81
2022-12-11T13:32:08.988Z,97908.78
2022-12-11T13:34:45.305Z,97909.66
2022-12-11T13:37:34.076Z,97895.03
2022-12-11T13:40:09.187Z,97907.97
2022-12-11T13:42:44.350Z,97902.56
2022-12-11T13:45:26.747Z,97904.41
2022-12-11T13:47:54.974Z,97911.38
2022-12-11T13:50:26.324Z,97909.69
2022-12-11T13:52:58.191Z,97913.13
2022-12-11T13:55:33.689Z,97920.81
2022-12-11T13:58:25.708Z,97923.41
2022-12-11T14:01:32.279Z,97925.91
2022-12-11T14:04:08.313Z,97920.00
2022-12-11T14:06:37.272Z,97930.91
2022-12-11T14:09:05.773Z,97916.78
2022-12-11T14:11:42.323Z,97941.09
2022-12-11T14:14:18.163Z,97949.50
2022-12-11T14:16:49.080Z,97951.19
2022-12-11T14:19:20.036Z,97944.16
2022-12-11T14:22:08.102Z,97942.38
2022-12-11T14:24:35.282Z,97936.28
2022-12-11T14:27:02.740Z,97944.16
2022-12-11T14:29:33.042Z,97944.97
2022-12-11T14:32:04.879Z,97940.47
2022-12-11T14:34:43.714Z,97949.88
2022-12-11T14:37:11.687Z,97943.78
2022-12-11T14:39:50.112Z,97946.34
2022-12-11T14:42:21.314Z,97942.06
2022-12-11T14:45:00.313Z,97944.53
2022-12-11T14:47:38.014Z,97939.22
2022-12-11T14:52:48.944Z,97953.75
2022-12-11T14:55:30.733Z,97947.03
2022-12-11T14:58:05.091Z,97953.84
2022-12-11T15:00:37.260Z,97940.22
2022-12-11T15:03:25.502Z,97949.56
2022-12-11T15:05:57.483Z,97955.53
2022-12-11T15:08:32.815Z,97962.28
2022-12-11T15:13:55.510Z,97964.81
2022-12-11T15:16:25.348Z,97964.81
2022-12-11T15:18:54.831Z,97962.16
2022-12-11T15:24:42.109Z,97956.06
2022-12-11T15:27:34.272Z,97981.19
2022-12-11T15:30:01.439Z,97990.53
2022-12-11T15:32:28.301Z,97982.84
2022-12-11T15:40:49.255Z,97957.94
2022-12-11T15:43:16.162Z,97975.94
2022-12-11T15:45:43.607Z,97971.69
2022-12-11T15:48:11.815Z,97971.56
2022-12-11T15:50:40.451Z,97949.25
2022-12-11T15:53:10.618Z,97945.03
2022-12-11T15:55:39.406Z,97956.88
2022-12-11T15:58:12.404Z,97975.00
2022-12-11T16:00:39.542Z,97981.00
2022-12-11T16:03:06.689Z,97959.53
2022-12-11T16:05:33.635Z,97964.38
2022-12-11T16:08:00.981Z,97968.91
2022-12-11T16:10:28.507Z,97979.16
2022-12-11T16:12:59.746Z,97971.47
2022-12-11T16:15:28.069Z,97974.63
2022-12-11T16:18:07.551Z,97979.19
2022-12-11T16:20:36.162Z,97985.28
2022-12-11T16:23:03.371Z,97976.69
2022-12-11T16:25:32.973Z,97970.59
2022-12-11T16:28:02.064Z,97984.72
2022-12-11T16:30:30.255Z,97982.59
2022-12-11T16:32:57.512Z,97975.75
2022-12-11T16:35:24.674Z,97970.25
2022-12-11T16:37:53.880Z,97973.09
2022-12-11T16:40:21.514Z,97967.94
2022-12-11T16:42:49.856Z,97972.81
2022-12-11T16:45:23.358Z,97974.59
2022-12-11T16:47:51.416Z,97979.88
2022-12-11T16:50:18.653Z,97978.91
2022-12-11T16:52:46.385Z,97976.47
2022-12-11T16:55:14.980Z,97983.38
2022-12-11T16:57:42.594Z,97986.75
2022-12-11T17:00:12.875Z,97978.22
2022-12-11T17:02:40.493Z,97974.81
2022-12-11T17:05:08.061Z,97970.47
2022-12-11T17:07:35.568Z,97972.16
2022-12-11T17:10:03.513Z,97980.28
2022-12-11T17:12:31.504Z,97984.06
2022-12-11T17:14:58.573Z,97991.19
2022-12-11T17:17:25.823Z,97997.88
2022-12-11T17:19:53.290Z,98002.31
2022-12-11T17:22:20.817Z,98011.75
2022-12-11T17:24:48.246Z,97997.06
2022-12-11T17:27:15.679Z,98009.94
2022-12-11T17:29:42.870Z,98016.13
2022-12-11T17:32:09.905Z,98017.75
2022-12-11T17:34:38.562Z,98016.97
2022-12-11T17:37:06.469Z,98014.41
2022-12-11T17:39:33.940Z,98015.31
2022-12-11T17:42:01.649Z,97997.13
2022-12-11T17:44:30.989Z,97997.91
2022-12-11T17:46:59.407Z,98002.19
2022-12-11T17:49:27.037Z,98003.28
2022-12-11T17:51:55.594Z,98008.19
2022-12-11T17:54:24.360Z,98008.03
2022-12-11T17:56:51.697Z,98005.63
2022-12-11T17:59:18.952Z,97997.03
2022-12-11T18:01:46.197Z,97988.59
2022-12-11T18:04:13.368Z,97997.25
2022-12-11T18:06:40.407Z,97995.59
2022-12-11T18:09:08.890Z,98002.47
2022-12-11T18:11:36.315Z,98005.25
2022-12-11T18:14:03.369Z,98004.22
2022-12-11T18:16:33.672Z,98016.34
2022-12-11T18:19:01.166Z,98028.09
2022-12-11T18:21:32.046Z,98023.88
2022-12-11T18:24:00.246Z,97995.59
2022-12-11T18:26:30.152Z,97992.19
2022-12-11T18:28:58.425Z,97983.66
2022-12-11T18:31:25.860Z,97977.63
2022-12-11T18:33:55.965Z,97968.94
2022-12-11T18:36:26.144Z,97981.72
2022-12-11T18:38:53.254Z,97985.00
2022-12-11T18:41:20.713Z,97977.31
2022-12-11T18:43:48.605Z,97984.31
2022-12-11T18:46:18.160Z,97976.56
2022-12-11T18:48:46.634Z,97982.69
2022-12-11T18:51:17.586Z,97972.31
2022-12-11T18:53:45.703Z,97975.00
2022-12-11T18:56:18.238Z,97974.81
2022-12-11T18:58:45.714Z,97988.63
2022-12-11T19:01:19.128Z,97994.56
2022-12-11T19:03:46.637Z,98001.31
2022-12-11T19:06:20.300Z,98016.84
2022-12-11T19:08:47.506Z,98003.13
2022-12-11T19:11:20.419Z,98005.72
2022-12-11T19:13:47.896Z,98004.03
2022-12-11T19:16:20.155Z,98004.91
2022-12-11T19:18:47.143Z,98001.19
2022-12-11T19:21:19.353Z,97997.66
2022-12-11T19:23:47.345Z,97985.66
2022-12-11T19:26:18.219Z,97999.50
2022-12-11T19:28:46.104Z,98006.19
2022-12-11T19:31:16.023Z,98002.78
2022-12-11T19:33:43.979Z,97994.34
2022-12-11T19:36:13.137Z,97996.22
2022-12-11T19:38:41.665Z,97999.34
2022-12-11T19:41:15.068Z,98031.16
2022-12-11T19:43:41.978Z,98026.06
2022-12-11T19:46:10.927Z,98024.22
2022-12-11T19:48:38.944Z,98044.13
2022-12-11T19:51:12.082Z,98038.06
2022-12-11T19:53:39.865Z,98033.03
2022-12-11T19:56:08.582Z,98041.63
2022-12-11T19:58:35.593Z,98037.38
2022-12-11T20:01:03.588Z,98043.28
2022-12-11T20:03:31.233Z,98055.34
2022-12-11T20:06:07.809Z,98057.88
2022-12-11T20:08:44.759Z,98059.50
2022-12-11T20:11:17.887Z,98063.88
2022-12-11T20:13:46.609Z,98060.47
2022-12-11T20:16:14.589Z,98044.28
2022-12-11T20:18:42.469Z,98052.16
2022-12-11T20:21:15.017Z,98048.66
2022-12-11T20:23:42.672Z,98060.44
2022-12-11T20:26:18.421Z,98049.88
2022-12-11T20:28:48.248Z,98061.94
2022-12-11T20:31:20.220Z,98035.84
2022-12-11T20:33:56.837Z,98052.47
2022-12-11T20:36:24.997Z,98056.78
2022-12-11T20:38:52.763Z,98077.41
2022-12-11T20:41:22.552Z,98074.97
2022-12-11T20:43:51.654Z,98080.19
2022-12-11T20:46:19.036Z,98082.59
2022-12-11T20:48:47.008Z,98087.75
2022-12-11T20:51:18.610Z,98068.81
2022-12-11T20:53:56.744Z,98084.25
2022-12-11T20:56:25.683Z,98079.91
2022-12-11T20:58:52.881Z,98086.22
2022-12-11T21:01:23.253Z,98092.16
2022-12-11T21:03:52.013Z,98099.81
2022-12-11T21:06:31.521Z,98097.97
2022-12-11T21:09:05.532Z,98090.38
2022-12-11T21:11:32.813Z,98101.69
2022-12-11T21:13:59.967Z,98090.25
2022-12-11T21:16:27.672Z,98096.09
2022-12-11T21:18:56.235Z,98096.16
2022-12-11T21:21:23.675Z,98097.66
2022-12-11T21:23:50.653Z,98098.72
2022-12-11T21:26:18.177Z,98102.06
2022-12-11T21:28:45.378Z,98098.00
2022-12-11T21:31:15.431Z,98096.25
2022-12-11T21:33:42.640Z,98104.72
2022-12-11T21:36:17.979Z,98105.31
2022-12-11T21:38:45.979Z,98102.06
2022-12-11T21:41:16.064Z,98100.16
2022-12-11T21:44:14.568Z,98111.25
2022-12-11T21:46:32.003Z,98118.81
2022-12-11T21:48:59.070Z,98136.16
2022-12-11T21:51:36.835Z,98137.25
2022-12-11T21:54:07.133Z,98141.53
2022-12-11T21:56:34.511Z,98141.44
2022-12-11T21:59:04.146Z,98133.84
2022-12-11T22:01:37.424Z,98134.75
2022-12-11T22:04:05.914Z,98139.88
2022-12-11T22:06:33.590Z,98138.59
2022-12-11T22:09:01.068Z,98155.13
2022-12-11T22:11:30.696Z,98153.91
2022-12-11T22:13:58.011Z,98160.41
2022-12-11T22:16:25.747Z,98159.22
2022-12-11T22:18:52.940Z,98148.88
2022-12-11T22:21:20.684Z,98150.69
2022-12-11T22:23:48.501Z,98138.63
2022-12-11T22:26:22.203Z,98148.91
2022-12-11T22:28:50.351Z,98154.91
2022-12-11T22:33:32.902Z,98151.28
2022-12-11T22:36:01.032Z,98154.13
2022-12-11T22:38:30.234Z,98149.84
2022-12-11T22:40:57.900Z,98149.66
2022-12-11T22:43:27.809Z,98150.47
2022-12-11T22:45:55.821Z,98143.53
2022-12-11T22:48:27.821Z,98136.81
2022-12-11T22:50:55.275Z,98145.91
2022-12-11T22:53:22.732Z,98146.16
2022-12-11T22:55:49.952Z,98150.47
2022-12-11T22:58:21.587Z,98143.72
2022-12-11T23:00:49.001Z,98140.25
2022-12-11T23:03:16.883Z,98154.09
2022-12-11T23:05:44.089Z,98149.97
2022-12-11T23:08:11.281Z,98152.63
2022-12-11T23:10:41.422Z,98145.69
2022-12-11T23:13:09.080Z,98142.13
2022-12-11T23:15:36.422Z,98135.25
2022-12-11T23:18:03.973Z,98139.28
2022-12-11T23:20:31.036Z,98148.66
2022-12-11T23:22:58.344Z,98129.84
2022-12-11T23:25:26.030Z,98141.94
2022-12-11T23:27:53.540Z,98141.06
2022-12-11T23:30:20.706Z,98135.75
2022-12-11T23:32:47.689Z,98125.53
2022-12-11T23:35:14.936Z,98113.53
2022-12-11T23:37:42.294Z,98112.75
2022-12-11T23:40:10.045Z,98115.47
2022-12-11T23:42:37.083Z,98110.94
2022-12-11T23:45:04.558Z,98110.09
2022-12-11T23:47:31.992Z,98111.72
2022-12-11T23:49:59.471Z,98107.56
2022-12-11T23:52:26.922Z,98105.56
2022-12-11T23:54:55.869Z,98118.63
2022-12-11T23:57:22.948Z,98105.69
2022-12-11T23:59:50.205Z,98103.19
